This is the latest recevied weather packets stored in our database for station/object FACT. If no packets are shown the sender has not sent any weather packets the latest 1 day(s).
| Time | Temp. | Humidity | Pressure | Rain* | Wind** | Luminosity | Snow |
|---|---|---|---|---|---|---|---|
| 1778033603 | 10.56° C | 100% | 1017 hPa | - | - | - | - |
| 1778032403 | 12.78° C | 87% | 1017 hPa | - | - | - | - |
| 1778031203 | 12.78° C | 87% | 1017 hPa | - | - | - | - |
| 1778030004 | 12.78° C | 87% | 1017 hPa | - | - | - | - |
| 1778029401 | 11.67° C | 87% | 1017 hPa | - | - | - | - |
| 1778028804 | 11.67° C | 87% | 1017 hPa | - | - | - | - |
| 1778028202 | 11.67° C | 87% | 1017 hPa | - | - | - | - |
| 1778027001 | 11.67° C | 87% | 1017 hPa | - | - | - | - |
| 1778026407 | 11.67° C | 87% | 1017 hPa | - | - | - | - |
| 1778022322 | 12.78° C | 82% | 1017 hPa | - | - | - | - |
| 1778021002 | 12.78° C | 82% | 1017 hPa | - | - | - | - |
| 1778019802 | 12.78° C | 82% | 1017 hPa | - | - | - | - |
| 1778018006 | 13.89° C | 76% | 1017 hPa | - | - | - | - |
| 1778017406 | 13.89° C | 76% | 1017 hPa | - | - | - | - |
| 1778016202 | 13.89° C | 76% | 1017 hPa | - | - | - | - |
| 1778014402 | 12.78° C | 82% | 1017 hPa | - | - | - | - |
| 1778013806 | 12.78° C | 82% | 1017 hPa | - | - | - | - |
| 1778012608 | 12.78° C | 82% | 1017 hPa | - | - | - | - |
| 1778012003 | 12.78° C | 82% | 1017 hPa | - | - | - | - |
| 1778010805 | 10.56° C | 87% | 1017 hPa | - | - | - | - |
| 1778009004 | 10.56° C | 87% | 1017 hPa | - | - | - | - |
| 1778007206 | - | - | 1015 hPa | - | - | - | - |
| 1778004803 | 15° C | 77% | 1016 hPa | - | - | - | - |
| 1778003604 | 15° C | 77% | 1016 hPa | - | - | - | - |
* Rain since midnight (hover to see other rain measurements)
** Current wind speed in m/s (hover to see current wind gust speed)